D/T METAR WX W/DIR W/SPE G/SPE TEMP DEWP
15/01/19 19:20 EGBJ 151920Z 22010KT 9999 BKN030 09/07 Q1014 SW (220°) 11.5mph 9°C 7°C
15/01/19 18:20 EGBJ 151820Z 22010KT 9999 FEW022 BKN026 09/07 Q1015 SW (220°) 11.5mph 9°C 7°C
15/01/19 17:50 EGBJ 151750Z 21006KT 9999 FEW024 09/07 Q1015 SSW (210°) 6.9mph 9°C 7°C
15/01/19 17:20 EGBJ 151720Z 22005KT 190V260 9999 SCT026 09/07 Q1015 SW (220°) 5.8mph 9°C 7°C
15/01/19 16:20 EGBJ 151620Z 21006KT 9999 FEW022 09/07 Q1016 SSW (210°) 6.9mph 9°C 7°C
15/01/19 15:50 EGBJ 151550Z 22008KT 180V240 9999 FEW015 SCT026 09/07 Q1016 SW (220°) 9.2mph 9°C 7°C
15/01/19 15:20 EGBJ 151520Z 23010KT 9999 FEW015 SCT024 10/07 Q1016 SW (230°) 11.5mph 10°C 7°C
15/01/19 14:50 EGBJ 151450Z 22009KT 9999 FEW009 SCT024 10/07 Q1016 SW (220°) 10.4mph 10°C 7°C
15/01/19 14:20 EGBJ 151420Z 22008KT 9999 SCT028 10/07 Q1017 SW (220°) 9.2mph 10°C 7°C
15/01/19 13:50 EGBJ 151350Z 22008KT 9999 SCT025 10/07 Q1017 SW (220°) 9.2mph 10°C 7°C
15/01/19 13:20 EGBJ 151320Z 24007KT 9999 FEW016 SCT025 10/06 Q1017 WSW (240°) 8.1mph 10°C 6°C
15/01/19 12:50 EGBJ 151250Z 24007KT 9999 FEW013 SCT023 11/06 Q1018 WSW (240°) 8.1mph 11°C 6°C
15/01/19 12:20 EGBJ 151220Z 24005KT 9999 FEW010 SCT018 10/07 Q1018 WSW (240°) 5.8mph 10°C 7°C
15/01/19 11:20 EGBJ 151120Z 22007KT 9999 FEW008 BKN015 09/08 Q1019 SW (220°) 8.1mph 9°C 8°C
15/01/19 10:50 EGBJ 151050Z 22008KT 9999 FEW005 SCT009 09/07 Q1019 SW (220°) 9.2mph 9°C 7°C
15/01/19 10:20 EGBJ 151020Z 22009KT 9999 FEW005 SCT009 09/07 Q1019 SW (220°) 10.4mph 9°C 7°C
15/01/19 09:50 EGBJ 150950Z 22009KT 9999 7000SW -DZ FEW009 SCT014 BKN025 08/07 Q1019 -DZ SW (220°) 10.4mph 8°C 7°C
15/01/19 09:20 EGBJ 150920Z 22004KT 9999 FEW015 SCT024 BKN032 08/07 Q1020 SW (220°) 4.6mph 8°C 7°C
15/01/19 08:50 EGBJ 150850Z 22007KT 9999 FEW018 SCT024 BKN030 08/07 Q1020 SW (220°) 8.1mph 8°C 7°C
15/01/19 08:20 EGBJ 150820Z 21005KT 9999 BKN024 BKN030 08/06 Q1020 SSW (210°) 5.8mph 8°C 6°C
15/01/19 07:50 EGBJ 150750Z 22006KT 9999 BKN024 08/05 Q1020 SW (220°) 6.9mph 8°C 5°C
15/01/19 07:20 EGBJ 150720Z 22005KT 9999 BKN023 08/05 Q1020 SW (220°) 5.8mph 8°C 5°C
14/01/19 18:50 EGBJ 141850Z 25004KT 9999 SCT048 05/02 Q1023 WSW (250°) 4.6mph 5°C 2°C
14/01/19 18:20 EGBJ 141820Z 27003KT 9999 SCT048 05/02 Q1023 W (270°) 3.5mph 5°C 2°C
14/01/19 17:50 EGBJ 141750Z 25002KT 9999 SCT048 06/03 Q1023 WSW (250°) 2.3mph 6°C 3°C
14/01/19 16:50 EGBJ 141650Z 26002KT 9999 BKN047 07/03 Q1023 W (260°) 2.3mph 7°C 3°C
14/01/19 16:20 EGBJ 141620Z 26003KT 9999 BKN044 08/04 Q1023 W (260°) 3.5mph 8°C 4°C
14/01/19 15:50 EGBJ 141550Z 27004KT 9999 BKN044 08/04 Q1023 W (270°) 4.6mph 8°C 4°C
14/01/19 15:20 EGBJ 141520Z 29003KT 9999 BKN042 09/03 Q1023 WNW (290°) 3.5mph 9°C 3°C
14/01/19 14:50 EGBJ 141450Z 29003KT 9999 BKN042 09/02 Q1022 WNW (290°) 3.5mph 9°C 2°C
14/01/19 14:20 EGBJ 141420Z 31007KT 9999 BKN040 09/02 Q1022 NW (310°) 8.1mph 9°C 2°C
14/01/19 13:50 EGBJ 141350Z 31006KT 9999 BKN040 09/02 Q1022 NW (310°) 6.9mph 9°C 2°C
14/01/19 13:20 EGBJ 141320Z 30007KT 9999 FEW015 BKN040 10/03 Q1022 WNW (300°) 8.1mph 10°C 3°C
14/01/19 12:50 EGBJ 141250Z 27006KT 9999 BKN040 10/03 Q1022 W (270°) 6.9mph 10°C 3°C
14/01/19 12:20 EGBJ 141220Z 30008KT 9999 BKN040 09/03 Q1022 WNW (300°) 9.2mph 9°C 3°C
14/01/19 11:50 EGBJ 141150Z 28005KT 9999 FEW024 BKN035 09/04 Q1022 W (280°) 5.8mph 9°C 4°C
14/01/19 11:20 EGBJ 141120Z 28007KT 9999 FEW024 BKN035 09/04 Q1022 W (280°) 8.1mph 9°C 4°C
14/01/19 10:50 EGBJ 141050Z 28006KT 9999 FEW024 BKN035 09/04 Q1022 W (280°) 6.9mph 9°C 4°C
14/01/19 10:20 EGBJ 141020Z 27006KT 9999 FEW024 BKN035 08/04 Q1022 W (270°) 6.9mph 8°C 4°C
14/01/19 09:50 EGBJ 140950Z 27006KT 9999 FEW024 BKN035 08/03 Q1022 W (270°) 6.9mph 8°C 3°C
14/01/19 09:20 EGBJ 140920Z 27005KT 9999 FEW024 BKN035 07/03 Q1021 W (270°) 5.8mph 7°C 3°C
14/01/19 08:50 EGBJ 140850Z 25004KT 9999 FEW022 BKN032 07/03 Q1021 WSW (250°) 4.6mph 7°C 3°C
14/01/19 08:20 EGBJ 140820Z 28005KT 9999 FEW022 BKN030 07/04 Q1021 W (280°) 5.8mph 7°C 4°C
13/01/19 17:20 EGBJ 131720Z 29007KT 9999 FEW012 BKN018 12/07 Q1013 WNW (290°) 8.1mph 12°C 7°C
13/01/19 16:50 EGBJ 131650Z 27007KT 230V290 9999 FEW012 BKN018 12/07 Q1012 W (270°) 8.1mph 12°C 7°C
13/01/19 15:50 EGBJ 131550Z 27009KT 9999 FEW012 BKN018 11/08 Q1013 W (270°) 10.4mph 11°C 8°C
13/01/19 15:20 EGBJ 131520Z 28008KT 9999 FEW014 BKN020 11/08 Q1013 W (280°) 9.2mph 11°C 8°C
13/01/19 14:50 EGBJ 131450Z 29010KT 9999 FEW014 BKN020 12/08 Q1013 WNW (290°) 11.5mph 12°C 8°C
13/01/19 14:20 EGBJ 131420Z 28011KT 250V310 9999 4000NW VCSH FEW012 BKN022 12/08 Q1013 VCSH W (280°) 12.7mph 12°C 8°C
13/01/19 13:50 EGBJ 131350Z 25007KT 200V270 9999 FEW012 BKN022 12/08 Q1013 WSW (250°) 8.1mph 12°C 8°C
13/01/19 13:20 EGBJ 131320Z 27009KT 230V300 9999 FEW012 BKN022 12/08 Q1013 W (270°) 10.4mph 12°C 8°C
13/01/19 12:50 EGBJ 131250Z 26007KT 220V290 9999 BKN022 12/08 Q1013 W (260°) 8.1mph 12°C 8°C
13/01/19 12:20 EGBJ 131220Z 27009KT 9999 BKN022 12/08 Q1014 W (270°) 10.4mph 12°C 8°C
13/01/19 11:50 EGBJ 131150Z 26007KT 9999 FEW015 BKN022 11/08 Q1014 W (260°) 8.1mph 11°C 8°C
13/01/19 11:20 EGBJ 131120Z 25010KT 9999 FEW015 BKN022 11/07 Q1015 WSW (250°) 11.5mph 11°C 7°C
13/01/19 10:50 EGBJ 131050Z 25008KT 9999 FEW015 BKN022 10/07 Q1015 WSW (250°) 9.2mph 10°C 7°C
13/01/19 10:20 EGBJ 131020Z 24007KT 9999 FEW012 BKN022 10/07 Q1015 WSW (240°) 8.1mph 10°C 7°C
13/01/19 09:50 EGBJ 130950Z 23006KT 9999 FEW012 BKN022 09/06 Q1016 SW (230°) 6.9mph 9°C 6°C
13/01/19 09:20 EGBJ 130920Z 22006KT 9999 FEW012 BKN040 09/06 Q1015 SW (220°) 6.9mph 9°C 6°C
13/01/19 08:50 EGBJ 130850Z 22003KT 9999 FEW020 SCT040 09/06 Q1016 SW (220°) 3.5mph 9°C 6°C
12/01/19 17:20 EGBJ 121720Z 26006KT 9999 FEW028 09/06 Q1021 W (260°) 6.9mph 9°C 6°C
12/01/19 16:50 EGBJ 121650Z 27005KT 240V320 9999 FEW028 09/06 Q1022 W (270°) 5.8mph 9°C 6°C
12/01/19 16:20 EGBJ 121620Z 26004KT 230V290 9999 FEW020 SCT028 10/06 Q1021 W (260°) 4.6mph 10°C 6°C
12/01/19 15:50 EGBJ 121550Z 29004KT 240V330 9999 FEW020 SCT028 10/05 Q1022 WNW (290°) 4.6mph 10°C 5°C
12/01/19 15:20 EGBJ 121520Z 28006KT 250V310 9999 FEW020 SCT028 10/05 Q1022 W (280°) 6.9mph 10°C 5°C
12/01/19 14:50 EGBJ 121450Z 29007KT 9999 FEW020 SCT027 10/05 Q1022 WNW (290°) 8.1mph 10°C 5°C
12/01/19 14:20 EGBJ 121420Z 29007KT 9999 FEW020 SCT027 10/05 Q1022 WNW (290°) 8.1mph 10°C 5°C
12/01/19 13:20 EGBJ 121320Z 28006KT 9999 SCT028 10/06 Q1023 W (280°) 6.9mph 10°C 6°C
12/01/19 12:50 EGBJ 121250Z 29010KT 9999 FEW018 SCT030 10/06 Q1023 WNW (290°) 11.5mph 10°C 6°C
12/01/19 12:20 EGBJ 121220Z 28007KT 9999 FEW018 SCT025 BKN045 10/07 Q1023 W (280°) 8.1mph 10°C 7°C
12/01/19 11:20 EGBJ 121120Z 27005KT 9999 SCT025 BKN045 10/07 Q1023 W (270°) 5.8mph 10°C 7°C
12/01/19 10:50 EGBJ 121050Z 23004KT 9999 FEW010 SCT030 BKN045 09/08 Q1023 SW (230°) 4.6mph 9°C 8°C
12/01/19 10:20 EGBJ 121020Z 24005KT 210V270 9999 3000E -DZ FEW010 SCT030 BKN045 09/08 Q1023 -DZ WSW (240°) 5.8mph 9°C 8°C
12/01/19 09:50 EGBJ 120950Z 23007KT 9999 3000E -DZ SCT012 BKN015 09/08 Q1023 -DZ SW (230°) 8.1mph 9°C 8°C
12/01/19 09:20 EGBJ 120920Z 23009KT 9999 FEW007 BKN015 09/08 Q1023 SW (230°) 10.4mph 9°C 8°C
12/01/19 08:50 EGBJ 120850Z 23008KT 9999 FEW007 BKN012 09/07 Q1024 SW (230°) 9.2mph 9°C 7°C
12/01/19 08:20 EGBJ 120820Z 23007KT 9999 FEW007 BKN015 09/07 Q1024 SW (230°) 8.1mph 9°C 7°C
11/01/19 18:50 EGBJ 111850Z 27002KT 9999 FEW018 SCT035 07/05 Q1031 W (270°) 2.3mph 7°C 5°C
11/01/19 18:20 EGBJ 111820Z 26003KT 9999 FEW018 SCT035 07/05 Q1031 W (260°) 3.5mph 7°C 5°C
11/01/19 17:50 EGBJ 111750Z 27003KT 9999 FEW018 SCT035 07/05 Q1031 W (270°) 3.5mph 7°C 5°C
11/01/19 17:20 EGBJ 111720Z 27003KT 9999 SCT020 BKN028 07/06 Q1031 W (270°) 3.5mph 7°C 6°C
11/01/19 16:50 EGBJ 111650Z 27003KT 9999 SCT018 BKN025 07/06 Q1031 W (270°) 3.5mph 7°C 6°C
11/01/19 16:20 EGBJ 111620Z 28002KT 9999 SCT018 BKN025 07/06 Q1031 W (280°) 2.3mph 7°C 6°C
11/01/19 15:50 EGBJ 111550Z 29003KT 9999 SCT018 BKN025 08/06 Q1031 WNW (290°) 3.5mph 8°C 6°C
11/01/19 15:20 EGBJ 111520Z 29003KT 9999 SCT016 BKN022 08/06 Q1031 WNW (290°) 3.5mph 8°C 6°C
11/01/19 14:50 EGBJ 111450Z 31004KT 9999 SCT018 BKN024 08/05 Q1031 NW (310°) 4.6mph 8°C 5°C
11/01/19 14:20 EGBJ 111420Z 31004KT 9999 SCT018 BKN024 08/05 Q1031 NW (310°) 4.6mph 8°C 5°C
11/01/19 13:50 EGBJ 111350Z 35003KT 9999 FEW016 SCT022 BKN035 09/05 Q1031 N (350°) 3.5mph 9°C 5°C
11/01/19 13:20 EGBJ 111320Z 00000KT 9999 FEW018 BKN032 09/06 Q1031 N (0°) 9°C 6°C
11/01/19 12:50 EGBJ 111250Z 35003KT 9999 SCT018 BKN034 08/05 Q1032 N (350°) 3.5mph 8°C 5°C
11/01/19 12:20 EGBJ 111220Z 00000KT 9999 FEW014 SCT020 BKN035 08/06 Q1032 N (0°) 8°C 6°C
11/01/19 11:50 EGBJ 111150Z 00000KT 9999 FEW012 SCT020 BKN035 08/06 Q1032 N (0°) 8°C 6°C
11/01/19 11:20 EGBJ 111120Z 22002KT 9999 FEW014 SCT030 07/05 Q1032 SW (220°) 2.3mph 7°C 5°C
11/01/19 10:50 EGBJ 111050Z 00000KT 9999 BKN015 07/06 Q1032 N (0°) 7°C 6°C
11/01/19 10:20 EGBJ 111020Z 22002KT 9999 BKN015 07/05 Q1032 SW (220°) 2.3mph 7°C 5°C
11/01/19 09:50 EGBJ 110950Z 00000KT 9999 BKN017 06/05 Q1032 N (0°) 6°C 5°C
11/01/19 09:20 EGBJ 110920Z 00000KT 9999 BKN017 06/05 Q1032 N (0°) 6°C 5°C
11/01/19 08:50 EGBJ 110850Z 00000KT 9999 BKN017 06/05 Q1032 N (0°) 6°C 5°C
11/01/19 08:20 EGBJ 110820Z 00000KT 9999 BKN015 06/04 Q1031 N (0°) 6°C 4°C
11/01/19 07:50 EGBJ 110750Z 00000KT 9999 BKN013 OVC018 06/05 Q1031 N (0°) 6°C 5°C
10/01/19 18:50 EGBJ 101850Z 00000KT 9999 BKN008 OVC011 06/04 Q1031 N (0°) 6°C 4°C
10/01/19 18:20 EGBJ 101820Z 00000KT 9999 BKN008 OVC011 06/04 Q1031 N (0°) 6°C 4°C
10/01/19 17:50 EGBJ 101750Z 00000KT 9999 BKN008 OVC011 05/03 Q1030 N (0°) 5°C 3°C
10/01/19 17:20 EGBJ 101720Z 00000KT 9999 BKN008 OVC012 05/03 Q1030 N (0°) 5°C 3°C
10/01/19 16:50 EGBJ 101650Z 00000KT 9999 BKN008 OVC012 05/03 Q1031 N (0°) 5°C 3°C
10/01/19 16:20 EGBJ 101620Z 00000KT 9999 BKN007 OVC012 05/03 Q1031 N (0°) 5°C 3°C
10/01/19 15:50 EGBJ 101550Z 00000KT 9999 BKN007 OVC011 05/03 Q1031 N (0°) 5°C 3°C
10/01/19 15:20 EGBJ 101520Z 00000KT 9999 7000E BKN007 OVC012 05/03 Q1031 N (0°) 5°C 3°C
10/01/19 14:50 EGBJ 101450Z 00000KT 8000 BKN007 OVC011 04/02 Q1031 N (0°) 4°C 2°C
10/01/19 14:20 EGBJ 101420Z 00000KT 7000 BKN007 OVC010 04/02 Q1031 N (0°) 4°C 2°C
10/01/19 13:50 EGBJ 101350Z 00000KT 7000 BKN007 OVC012 04/02 Q1031 N (0°) 4°C 2°C
10/01/19 13:20 EGBJ 101320Z 00000KT 7000 BKN007 OVC012 04/02 Q1031 N (0°) 4°C 2°C
10/01/19 12:50 EGBJ 101250Z 27002KT 7000 BKN007 OVC012 04/02 Q1031 W (270°) 2.3mph 4°C 2°C
10/01/19 12:20 EGBJ 101220Z 25002KT 9000 BKN008 04/01 Q1031 WSW (250°) 2.3mph 4°C 1°C
10/01/19 11:50 EGBJ 101150Z 00000KT 9000 SCT010 BKN018 04/01 Q1032 N (0°) 4°C 1°C
10/01/19 11:20 EGBJ 101120Z 00000KT 9999 FEW017 BKN021 03/01 Q1032 N (0°) 3°C 1°C
10/01/19 10:50 EGBJ 101050Z 00000KT 9999 FEW018 BKN022 03/01 Q1032 N (0°) 3°C 1°C
10/01/19 10:20 EGBJ 101020Z 00000KT 9999 FEW026 SCT035 02/00 Q1032 N (0°) 2°C 0°C
10/01/19 09:50 EGBJ 100950Z 00000KT 9999 FEW045 02/M00 Q1032 N (0°) 2°C 0°C
10/01/19 09:20 EGBJ 100920Z 00000KT 9999 FEW045 01/M01 Q1032 N (0°) 1°C -1°C
10/01/19 08:50 EGBJ 100850Z 00000KT 9999 FEW040 01/M01 Q1032 N (0°) 1°C -1°C
10/01/19 08:20 EGBJ 100820Z 00000KT CAVOK 01/M01 Q1032 N (0°) 1°C -1°C
10/01/19 07:50 EGBJ 100750Z 00000KT 9999 FEW007 00/M01 Q1032 N (0°) 0°C -1°C
9/01/19 18:50 EGBJ 091850Z 00000KT CAVOK 01/M01 Q1032 N (0°) 1°C -1°C
9/01/19 18:20 EGBJ 091820Z 00000KT 9999 FEW042 01/M01 Q1031 N (0°) 1°C -1°C
9/01/19 17:50 EGBJ 091750Z 00000KT 9999 FEW045 02/M00 Q1031 N (0°) 2°C 0°C
9/01/19 17:20 EGBJ 091720Z 00000KT 9999 FEW045 03/M00 Q1032 N (0°) 3°C 0°C
9/01/19 16:50 EGBJ 091650Z 00000KT CAVOK 03/M00 Q1031 N (0°) 3°C 0°C
9/01/19 16:20 EGBJ 091620Z 36003KT CAVOK 03/M00 Q1031 N (360°) 3.5mph 3°C 0°C
9/01/19 15:50 EGBJ 091550Z 36004KT 9999 FEW045 04/00 Q1031 N (360°) 4.6mph 4°C 0°C
9/01/19 15:20 EGBJ 091520Z 36004KT 9999 FEW047 05/00 Q1031 N (360°) 4.6mph 5°C 0°C
9/01/19 14:50 EGBJ 091450Z 36005KT 9999 FEW045 06/01 Q1031 N (360°) 5.8mph 6°C 1°C
9/01/19 14:20 EGBJ 091420Z 35007KT 9999 FEW040 05/01 Q1031 N (350°) 8.1mph 5°C 1°C
9/01/19 13:50 EGBJ 091350Z 35006KT 9999 FEW040 05/00 Q1031 N (350°) 6.9mph 5°C 0°C
9/01/19 12:50 EGBJ 091250Z 35006KT 9999 FEW040 05/01 Q1031 N (350°) 6.9mph 5°C 1°C
9/01/19 12:20 EGBJ 091220Z 02005KT CAVOK 05/01 Q1032 NNE (20°) 5.8mph 5°C 1°C
9/01/19 11:20 EGBJ 091120Z 36004KT 330V030 9999 FEW032 04/01 Q1032 N (360°) 4.6mph 4°C 1°C
9/01/19 10:50 EGBJ 091050Z 01002KT 9999 FEW030 03/01 Q1032 N (10°) 2.3mph 3°C 1°C
9/01/19 10:20 EGBJ 091020Z 00000KT 9999 FEW045 02/01 Q1032 N (0°) 2°C 1°C
9/01/19 09:50 EGBJ 090950Z 00000KT 9999 FEW042 01/00 Q1032 N (0°) 1°C 0°C
9/01/19 09:20 EGBJ 090920Z 00000KT CAVOK 01/00 Q1032 N (0°) 1°C 0°C
9/01/19 08:50 EGBJ 090850Z 00000KT CAVOK 00/M00 Q1032 N (0°) 0°C 0°C
9/01/19 08:20 EGBJ 090820Z 00000KT 9999 FEW009 01/01 Q1031 N (0°) 1°C 1°C
9/01/19 07:50 EGBJ 090750Z 13002KT 9999 FEW007 00/M00 Q1031 SE (130°) 2.3mph 0°C 0°C